Time;durP1;ratioP1;P1;durP2;ratioP2;P2;SDS_P1;SDS_P2;PMS_P1;PMS_P2;Temp;Humidity;BMP_temperature;BMP_pressure;BME280_temperature;BME280_humidity;BME280_pressure;Samples;Min_cycle;Max_cycle;Signal;HPM_P1;HPM_P2
2022/03/06 00:02:02;;;;;;;19.90;11.75;;;2.00;92.90;;;;;;5069570;28;20257;-90
2022/03/06 00:04:29;;;;;;;17.83;10.27;;;2.10;92.80;;;;;;5059570;28;20185;-89
2022/03/06 00:06:57;;;;;;;19.00;10.57;;;2.20;92.80;;;;;;5058218;28;20234;-89
2022/03/06 00:09:24;;;;;;;18.48;10.70;;;1.90;92.60;;;;;;5061218;28;20232;-90
2022/03/06 00:11:54;;;;;;;17.02;10.50;;;2.10;92.80;;;;;;5076220;28;20615;-90
2022/03/06 00:14:21;;;;;;;14.70;9.75;;;1.90;93.00;;;;;;5077907;28;20191;-89
2022/03/06 00:16:48;;;;;;;19.80;10.25;;;1.90;93.20;;;;;;5071231;28;20231;-88
2022/03/06 00:19:21;;;;;;;17.60;11.18;;;1.80;93.30;;;;;;5062317;28;20234;-89
2022/03/06 00:21:49;;;;;;;16.40;10.30;;;2.00;93.20;;;;;;5057700;28;20645;-89
2022/03/06 00:24:18;;;;;;;20.15;11.35;;;2.10;93.30;;;;;;5056927;28;20242;-91
2022/03/06 00:26:46;;;;;;;21.00;10.93;;;2.20;93.40;;;;;;5056475;28;20234;-91
2022/03/06 00:29:14;;;;;;;19.70;11.25;;;2.10;93.30;;;;;;5057548;28;20304;-90
2022/03/06 00:31:41;;;;;;;16.35;9.32;;;1.90;93.50;;;;;;5057868;28;20202;-91
2022/03/06 00:34:09;;;;;;;19.27;9.93;;;2.10;93.60;;;;;;5063131;28;20213;-90
2022/03/06 00:36:36;;;;;;;18.42;9.13;;;2.10;93.60;;;;;;5066584;28;20252;-89
2022/03/06 00:39:04;;;;;;;18.98;9.30;;;1.80;93.50;;;;;;5067145;28;20289;-89
2022/03/06 00:41:31;;;;;;;16.55;9.48;;;2.00;93.70;;;;;;5066840;28;20210;-89
2022/03/06 00:43:59;;;;;;;20.17;9.95;;;1.90;93.80;;;;;;5059944;28;20198;-89
2022/03/06 00:46:28;;;;;;;18.25;9.65;;;1.90;94.10;;;;;;5057108;28;20363;-89
2022/03/06 00:48:55;;;;;;;18.48;10.77;;;1.90;94.20;;;;;;5057436;28;20222;-89
2022/03/06 00:51:22;;;;;;;18.88;10.48;;;1.70;94.20;;;;;;5058529;28;20235;-89
2022/03/06 00:53:54;;;;;;;24.05;11.65;;;1.80;94.30;;;;;;5064020;28;20231;-89
2022/03/06 00:56:21;;;;;;;15.50;8.98;;;2.00;94.30;;;;;;5077545;28;20275;-88
2022/03/06 00:58:55;;;;;;;17.67;9.90;;;1.90;94.20;;;;;;5075463;28;20647;-90
2022/03/06 01:01:32;;;;;;;;;;;;;;;;;;;;;
2022/03/06 01:04:01;;;;;;;17.13;9.40;;;1.80;94.40;;;;;;5061079;28;20198;-89
2022/03/06 01:06:30;;;;;;;16.55;10.00;;;1.90;94.70;;;;;;5060468;28;20722;-89
2022/03/06 01:08:57;;;;;;;15.68;9.13;;;1.70;95.20;;;;;;5064809;28;20202;-90
2022/03/06 01:11:29;;;;;;;15.98;9.45;;;1.80;95.80;;;;;;5078783;28;20202;-89
2022/03/06 01:13:56;;;;;;;15.20;9.82;;;1.60;96.10;;;;;;5075634;28;20221;-89
2022/03/06 01:16:23;;;;;;;16.65;8.75;;;1.70;96.50;;;;;;5077324;28;20580;-89
2022/03/06 01:18:50;;;;;;;18.45;11.07;;;1.50;96.60;;;;;;5061288;28;20202;-90
2022/03/06 01:21:19;;;;;;;18.00;9.90;;;1.70;96.50;;;;;;5061679;28;20198;-88
2022/03/06 01:23:46;;;;;;;19.10;9.35;;;1.40;96.10;;;;;;5060697;28;20227;-88
2022/03/06 01:26:13;;;;;;;19.73;10.15;;;1.60;96.40;;;;;;5065562;28;20299;-89
2022/03/06 01:28:40;;;;;;;17.58;10.00;;;1.50;96.60;;;;;;5062256;28;20567;-89
2022/03/06 01:31:07;;;;;;;16.85;10.15;;;1.60;96.60;;;;;;5060370;28;20236;-89
2022/03/06 01:33:34;;;;;;;17.00;9.68;;;1.40;96.70;;;;;;5060890;28;20249;-90
2022/03/06 01:36:01;;;;;;;16.40;10.45;;;1.30;96.90;;;;;;5060419;28;20291;-90
2022/03/06 01:38:29;;;;;;;16.05;9.80;;;1.40;97.60;;;;;;5059587;28;20210;-90
2022/03/06 01:40:57;;;;;;;18.05;9.75;;;1.40;97.50;;;;;;5060066;28;20217;-90
2022/03/06 01:43:24;;;;;;;15.43;9.25;;;1.50;97.80;;;;;;5073703;28;20202;-90
2022/03/06 01:45:51;;;;;;;14.57;8.88;;;1.50;97.90;;;;;;5064067;28;20596;-90
2022/03/06 01:48:18;;;;;;;17.38;9.70;;;1.30;97.80;;;;;;5069497;28;20195;-89
2022/03/06 01:50:46;;;;;;;20.63;10.55;;;1.40;98.00;;;;;;5069163;28;20222;-89
2022/03/06 01:53:14;;;;;;;18.42;10.30;;;1.30;98.10;;;;;;5068817;28;20210;-89
2022/03/06 01:55:43;;;;;;;17.50;9.45;;;1.20;98.00;;;;;;5064489;28;20268;-89
2022/03/06 01:58:12;;;;;;;18.40;10.25;;;1.10;98.10;;;;;;5064800;28;20236;-89
2022/03/06 02:00:42;;;;;;;18.00;9.35;;;1.10;98.30;;;;;;5060215;28;20210;-89
2022/03/06 02:03:10;;;;;;;18.95;10.75;;;1.10;98.50;;;;;;5067055;28;20603;-90
2022/03/06 02:05:38;;;;;;;19.50;10.73;;;1.40;98.70;;;;;;5077952;28;20208;-89
2022/03/06 02:08:05;;;;;;;17.20;10.00;;;1.30;98.70;;;;;;5059060;28;20203;-89
2022/03/06 02:10:33;;;;;;;18.25;10.80;;;1.40;99.00;;;;;;5057979;28;20301;-90
2022/03/06 02:13:02;;;;;;;17.70;9.93;;;1.20;99.10;;;;;;5059466;28;20218;-90
2022/03/06 02:15:29;;;;;;;17.35;10.95;;;1.20;99.40;;;;;;5058659;28;20290;-90
2022/03/06 02:17:56;;;;;;;18.48;9.70;;;1.00;99.80;;;;;;5057674;28;20221;-89
2022/03/06 02:20:24;;;;;;;17.98;10.75;;;1.10;99.90;;;;;;5058242;28;20260;-91
2022/03/06 02:22:54;;;;;;;20.05;10.95;;;1.10;99.90;;;;;;5058860;28;20274;-90
2022/03/06 02:25:23;;;;;;;19.65;10.80;;;1.20;99.90;;;;;;5058982;28;20277;-89
2022/03/06 02:27:52;;;;;;;16.70;9.77;;;1.20;99.90;;;;;;5059896;28;20233;-89
2022/03/06 02:30:21;;;;;;;16.45;10.13;;;0.90;99.90;;;;;;5058920;28;20653;-89
2022/03/06 02:32:50;;;;;;;18.92;10.52;;;0.90;99.90;;;;;;5058578;28;20690;-88
2022/03/06 02:35:19;;;;;;;18.17;10.43;;;0.90;99.90;;;;;;5062500;28;20704;-88
2022/03/06 02:37:47;;;;;;;18.05;10.15;;;1.10;99.90;;;;;;5078559;28;20317;-88
2022/03/06 02:40:17;;;;;;;19.50;10.10;;;0.90;99.90;;;;;;5070507;28;20255;-89
2022/03/06 02:42:46;;;;;;;19.50;10.70;;;1.10;99.90;;;;;;5059663;28;20194;-89
2022/03/06 02:45:16;;;;;;;17.08;9.82;;;0.80;99.90;;;;;;5060235;28;20233;-89
2022/03/06 02:47:44;;;;;;;19.08;9.60;;;0.90;99.90;;;;;;5058179;28;20659;-89
2022/03/06 02:50:14;;;;;;;19.02;11.77;;;1.00;99.90;;;;;;5068960;28;20219;-89
2022/03/06 02:52:41;;;;;;;18.02;10.30;;;1.00;99.90;;;;;;5075107;28;20202;-89
2022/03/06 02:55:11;;;;;;;17.60;10.13;;;1.20;99.90;;;;;;5068896;28;20192;-89
2022/03/06 02:57:40;;;;;;;20.20;9.90;;;1.10;99.90;;;;;;5069145;28;20229;-89
2022/03/06 03:00:11;;;;;;;18.08;10.50;;;0.90;99.90;;;;;;5057617;28;20277;-90
2022/03/06 03:02:38;;;;;;;17.98;11.43;;;0.90;99.90;;;;;;5057656;28;20213;-90
2022/03/06 03:05:07;;;;;;;18.55;10.15;;;0.80;99.90;;;;;;5058028;28;20210;-89
2022/03/06 03:07:34;;;;;;;18.38;11.20;;;0.90;99.90;;;;;;5064947;28;20225;-89
2022/03/06 03:10:01;;;;;;;17.42;10.55;;;1.00;99.90;;;;;;5060578;28;20214;-90
2022/03/06 03:12:28;;;;;;;23.48;11.48;;;0.80;99.90;;;;;;5058875;28;20269;-90
2022/03/06 03:14:56;;;;;;;20.33;10.27;;;0.50;99.90;;;;;;5060084;28;20222;-90
2022/03/06 03:17:23;;;;;;;20.92;11.85;;;0.60;99.90;;;;;;5075947;28;20214;-89
2022/03/06 03:19:50;;;;;;;16.77;9.95;;;0.70;99.90;;;;;;5077133;28;20217;-89
2022/03/06 03:22:17;;;;;;;18.10;11.15;;;0.50;99.90;;;;;;5070523;28;20210;-89
2022/03/06 03:24:44;;;;;;;18.05;11.13;;;0.60;99.90;;;;;;5058581;28;20240;-90
2022/03/06 03:27:11;;;;;;;21.65;12.32;;;0.70;99.90;;;;;;5073993;22;20226;-87
2022/03/06 03:29:38;;;;;;;18.63;10.60;;;0.60;99.90;;;;;;5061001;28;20288;-88
2022/03/06 03:32:08;;;;;;;18.90;10.80;;;0.50;99.90;;;;;;5059712;28;20217;-87
2022/03/06 03:34:35;;;;;;;17.27;10.43;;;0.70;99.90;;;;;;5059844;28;20232;-88
2022/03/06 03:37:02;;;;;;;19.33;10.75;;;0.80;99.90;;;;;;5064239;28;20294;-88
2022/03/06 03:39:29;;;;;;;18.52;10.75;;;0.60;99.90;;;;;;5061027;28;20207;-88
2022/03/06 03:41:56;;;;;;;24.83;11.02;;;0.60;99.90;;;;;;5060112;28;20203;-88
2022/03/06 03:44:23;;;;;;;16.30;10.48;;;0.60;99.90;;;;;;5060990;28;20642;-88
2022/03/06 03:46:50;;;;;;;18.75;10.25;;;0.70;99.90;;;;;;5058808;28;20285;-87
2022/03/06 03:49:18;;;;;;;19.40;10.55;;;0.40;99.90;;;;;;5059569;28;20228;-88
2022/03/06 03:51:46;;;;;;;17.63;10.55;;;0.70;99.90;;;;;;5062300;28;20211;-88
2022/03/06 03:54:13;;;;;;;20.85;11.15;;;0.70;99.90;;;;;;5061870;28;20279;-89
2022/03/06 03:56:41;;;;;;;20.55;10.05;;;0.80;99.90;;;;;;5072098;28;20564;-88
2022/03/06 03:59:08;;;;;;;20.48;11.25;;;0.60;99.90;;;;;;5063863;28;20211;-89
2022/03/06 04:01:35;;;;;;;17.10;10.40;;;0.70;99.90;;;;;;5059732;28;20290;-88
2022/03/06 04:04:04;;;;;;;18.75;9.80;;;0.40;99.90;;;;;;5058187;28;20576;-89
2022/03/06 04:06:32;;;;;;;19.25;10.30;;;0.60;99.90;;;;;;5059304;28;20658;-87
2022/03/06 04:08:59;;;;;;;18.42;10.60;;;0.50;99.90;;;;;;5060651;28;20633;-88
2022/03/06 04:11:26;;;;;;;19.30;10.90;;;0.60;99.90;;;;;;5057743;28;20199;-88
2022/03/06 04:13:53;;;;;;;22.27;10.90;;;0.50;99.90;;;;;;5057613;28;20709;-88
2022/03/06 04:16:20;;;;;;;21.25;11.18;;;0.50;99.90;;;;;;5061022;28;20248;-87
2022/03/06 04:18:47;;;;;;;19.63;11.35;;;0.40;99.90;;;;;;5058368;28;20280;-87
2022/03/06 04:21:14;;;;;;;19.20;10.82;;;0.30;99.90;;;;;;5057763;28;20241;-87
2022/03/06 04:23:42;;;;;;;18.65;10.18;;;0.30;99.90;;;;;;5060537;28;20203;-87
2022/03/06 04:26:09;;;;;;;17.13;10.85;;;0.10;99.90;;;;;;5059059;28;20242;-88
2022/03/06 04:28:36;;;;;;;23.25;11.65;;;0.30;99.90;;;;;;5059599;28;20297;-88
2022/03/06 04:31:06;;;;;;;18.52;10.60;;;0.30;99.90;;;;;;5059634;28;20237;-88
2022/03/06 04:33:33;;;;;;;26.73;11.25;;;0.40;99.90;;;;;;5065221;28;20327;-88
2022/03/06 04:36:04;;;;;;;17.48;10.20;;;0.50;99.90;;;;;;5063166;28;20230;-87
2022/03/06 04:38:31;;;;;;;22.17;10.52;;;0.30;99.90;;;;;;5063784;28;20202;-88
2022/03/06 04:40:59;;;;;;;18.85;10.93;;;0.20;99.90;;;;;;5064873;28;20211;-88
2022/03/06 04:43:26;;;;;;;16.70;9.75;;;0.40;99.90;;;;;;5062471;28;20233;-88
2022/03/06 04:45:53;;;;;;;16.77;10.43;;;0.50;99.90;;;;;;5064826;28;20229;-88
2022/03/06 04:48:20;;;;;;;16.10;9.50;;;0.40;99.90;;;;;;5063118;28;20260;-88
2022/03/06 04:50:48;;;;;;;18.17;10.27;;;0.30;99.90;;;;;;5063397;28;20227;-87
2022/03/06 04:53:15;;;;;;;20.02;10.43;;;0.20;99.90;;;;;;5062751;28;20596;-87
2022/03/06 04:55:42;;;;;;;22.02;11.30;;;0.50;99.90;;;;;;5070631;28;20233;-87
2022/03/06 04:58:12;;;;;;;17.25;10.82;;;0.10;99.90;;;;;;5064452;28;20552;-87
2022/03/06 05:00:39;;;;;;;14.10;9.27;;;0.20;99.90;;;;;;5063528;28;20217;-88
2022/03/06 05:03:06;;;;;;;22.48;11.32;;;0.20;99.90;;;;;;5062508;28;20663;-88
2022/03/06 05:05:33;;;;;;;18.77;10.85;;;0.10;99.90;;;;;;5062658;28;20214;-89
2022/03/06 05:08:00;;;;;;;17.45;10.30;;;0.00;99.90;;;;;;5064128;28;20248;-88
2022/03/06 05:10:27;;;;;;;19.35;10.63;;;0.10;99.90;;;;;;5075176;28;20244;-88
2022/03/06 05:12:54;;;;;;;15.75;10.10;;;0.20;99.90;;;;;;5073493;28;20240;-87
2022/03/06 05:15:22;;;;;;;24.08;11.38;;;0.20;99.90;;;;;;5074826;28;20222;-88
2022/03/06 05:17:49;;;;;;;17.13;9.27;;;0.00;99.90;;;;;;5080898;28;20213;-88
2022/03/06 05:20:17;;;;;;;19.52;10.18;;;0.10;99.90;;;;;;5077620;28;20216;-88
2022/03/06 05:22:44;;;;;;;18.95;10.55;;;-0.10;99.90;;;;;;5077353;28;20210;-89
2022/03/06 05:25:14;;;;;;;20.00;11.63;;;-0.20;99.90;;;;;;5078299;28;20252;-87
2022/03/06 05:27:41;;;;;;;19.08;10.80;;;-0.10;99.90;;;;;;5066115;28;20313;-87
2022/03/06 05:30:11;;;;;;;21.17;12.13;;;0.10;99.90;;;;;;5063550;28;20237;-87
2022/03/06 05:32:40;;;;;;;19.55;11.40;;;0.00;99.90;;;;;;5064393;28;20221;-87
2022/03/06 05:35:08;;;;;;;20.27;11.15;;;0.10;99.90;;;;;;5063279;28;20225;-88
2022/03/06 05:37:37;;;;;;;22.70;11.77;;;0.10;99.90;;;;;;5063279;28;20223;-87
2022/03/06 05:40:06;;;;;;;19.25;11.15;;;0.00;99.90;;;;;;5066075;28;20242;-87
2022/03/06 05:42:33;;;;;;;20.17;10.80;;;0.20;99.90;;;;;;5064969;28;20259;-88
2022/03/06 05:45:00;;;;;;;20.33;11.02;;;0.00;99.90;;;;;;5063724;28;20202;-87
2022/03/06 05:47:27;;;;;;;21.10;12.13;;;0.00;99.90;;;;;;5064574;28;20226;-88
2022/03/06 05:49:56;;;;;;;17.13;10.85;;;0.10;99.90;;;;;;5078175;28;20214;-87
2022/03/06 05:52:22;;;;;;;18.23;10.73;;;0.20;99.90;;;;;;5078637;28;20206;-87
2022/03/06 05:54:49;;;;;;;21.17;9.35;;;0.10;99.90;;;;;;5070184;28;20226;-87
2022/03/06 05:57:16;;;;;;;17.02;11.25;;;0.20;99.90;;;;;;5062003;28;20321;-87
2022/03/06 05:59:43;;;;;;;21.70;10.50;;;0.30;99.90;;;;;;5074928;28;20222;-87
2022/03/06 06:02:10;;;;;;;17.50;10.23;;;0.50;99.90;;;;;;5077023;28;20218;-88
2022/03/06 06:04:37;;;;;;;15.60;10.05;;;0.40;99.90;;;;;;5069027;28;20213;-87
2022/03/06 06:07:06;;;;;;;16.92;10.90;;;0.40;99.90;;;;;;5064048;28;20230;-88
2022/03/06 06:09:33;;;;;;;19.02;12.18;;;0.40;99.90;;;;;;5065823;28;20198;-87
2022/03/06 06:12:00;;;;;;;17.95;10.88;;;0.30;99.90;;;;;;5064633;28;20245;-87
2022/03/06 06:14:26;;;;;;;18.55;11.38;;;0.30;99.90;;;;;;5065004;28;20313;-87
2022/03/06 06:16:54;;;;;;;22.58;10.45;;;0.60;99.90;;;;;;5060349;28;20230;-87
2022/03/06 06:19:20;;;;;;;22.88;12.05;;;0.30;99.90;;;;;;5062062;28;20214;-88
2022/03/06 06:21:48;;;;;;;20.98;10.80;;;0.30;99.90;;;;;;5062781;28;20289;-87
2022/03/06 06:24:16;;;;;;;17.63;10.48;;;0.10;99.90;;;;;;5061982;28;20252;-88
2022/03/06 06:26:45;;;;;;;20.90;10.73;;;0.20;99.90;;;;;;5060082;28;20664;-88
2022/03/06 06:29:13;;;;;;;22.85;11.35;;;0.40;99.90;;;;;;5062475;28;20206;-88
2022/03/06 06:31:40;;;;;;;16.88;9.27;;;0.20;99.90;;;;;;5075602;28;20190;-88
2022/03/06 06:34:07;;;;;;;18.33;11.00;;;0.20;99.90;;;;;;5075323;28;20250;-87
2022/03/06 06:36:34;;;;;;;17.08;9.98;;;0.10;99.90;;;;;;5071011;28;20233;-88
2022/03/06 06:39:01;;;;;;;18.83;11.38;;;0.20;99.90;;;;;;5070463;28;20202;-88
2022/03/06 06:41:30;;;;;;;17.98;10.75;;;0.20;99.90;;;;;;5063937;28;20324;-88
2022/03/06 06:43:57;;;;;;;18.05;11.88;;;0.20;99.90;;;;;;5072498;28;20221;-88
2022/03/06 06:46:23;;;;;;;19.90;11.73;;;0.40;99.90;;;;;;5065745;28;20230;-88
2022/03/06 06:48:51;;;;;;;18.60;10.40;;;0.30;99.90;;;;;;5061981;28;20216;-88
2022/03/06 06:51:18;;;;;;;22.80;11.13;;;0.50;99.90;;;;;;5062365;28;20206;-89
2022/03/06 06:53:45;;;;;;;21.98;11.85;;;0.50;99.90;;;;;;5063136;28;20233;-87
2022/03/06 06:56:12;;;;;;;20.35;10.80;;;0.50;99.90;;;;;;5065842;28;20226;-88
2022/03/06 06:58:40;;;;;;;16.73;10.23;;;0.40;99.90;;;;;;5077891;28;20203;-88
2022/03/06 07:01:07;;;;;;;22.63;11.20;;;0.50;99.90;;;;;;5074603;28;20213;-87
2022/03/06 07:03:34;;;;;;;22.42;12.27;;;0.50;99.90;;;;;;5063208;28;20301;-88
2022/03/06 07:06:04;;;;;;;20.15;11.75;;;0.50;99.90;;;;;;5061222;28;20227;-88
2022/03/06 07:08:31;;;;;;;22.67;12.48;;;0.70;99.90;;;;;;5063095;28;20199;-88
2022/03/06 07:10:58;;;;;;;24.65;12.35;;;0.80;99.90;;;;;;5061960;28;20218;-88
2022/03/06 07:13:25;;;;;;;21.80;11.60;;;0.80;99.90;;;;;;5062823;28;20260;-88
2022/03/06 07:15:53;;;;;;;21.90;11.60;;;0.70;99.90;;;;;;5060767;28;20262;-88
2022/03/06 07:18:20;;;;;;;19.67;12.20;;;0.80;99.90;;;;;;5061852;28;20206;-88
2022/03/06 07:20:47;;;;;;;21.10;11.63;;;0.90;99.90;;;;;;5061252;28;20213;-88
2022/03/06 07:23:15;;;;;;;19.63;11.75;;;0.70;99.90;;;;;;5064233;28;20202;-88
2022/03/06 07:25:42;;;;;;;23.27;11.98;;;0.80;99.90;;;;;;5071792;28;20244;-88
2022/03/06 07:28:09;;;;;;;26.83;14.38;;;1.10;99.90;;;;;;5063387;28;20206;-88
2022/03/06 07:30:36;;;;;;;24.42;13.10;;;1.10;99.90;;;;;;5062923;28;20289;-88
2022/03/06 07:33:04;;;;;;;28.58;13.18;;;1.00;99.90;;;;;;5064547;28;20671;-89
2022/03/06 07:35:31;;;;;;;21.65;13.00;;;1.10;99.90;;;;;;5061798;28;20249;-87
2022/03/06 07:37:58;;;;;;;19.40;11.55;;;1.30;99.90;;;;;;5062635;28;20202;-88
2022/03/06 07:40:25;;;;;;;27.30;14.23;;;1.40;99.90;;;;;;5068376;28;20206;-88
2022/03/06 07:42:52;;;;;;;20.25;12.63;;;1.60;99.90;;;;;;5069220;28;20232;-88
2022/03/06 07:45:19;;;;;;;23.30;13.52;;;1.70;99.90;;;;;;5065940;28;20298;-89
2022/03/06 07:47:46;;;;;;;21.15;13.18;;;1.80;99.90;;;;;;5064916;28;20261;-88
2022/03/06 07:50:16;;;;;;;21.13;12.88;;;1.70;99.90;;;;;;5060694;28;20618;-88
2022/03/06 07:52:44;;;;;;;24.48;12.82;;;2.10;99.90;;;;;;5060239;28;20623;-89
2022/03/06 07:55:11;;;;;;;22.92;12.93;;;2.10;99.90;;;;;;5060239;28;20255;-88
2022/03/06 07:57:38;;;;;;;17.98;10.32;;;2.10;99.90;;;;;;5062439;28;20230;-88
2022/03/06 08:00:09;;;;;;;31.17;12.88;;;2.60;99.90;;;;;;5077383;28;20569;-88
2022/03/06 08:02:36;;;;;;;22.35;12.00;;;2.60;99.90;;;;;;5075699;28;20210;-87
2022/03/06 08:05:03;;;;;;;18.15;11.40;;;2.70;99.90;;;;;;5073450;28;20200;-87
2022/03/06 08:07:31;;;;;;;21.40;12.95;;;2.70;99.90;;;;;;5080898;28;20222;-88
2022/03/06 08:09:58;;;;;;;22.42;12.35;;;2.50;99.90;;;;;;5066729;28;20212;-88
2022/03/06 08:12:27;;;;;;;20.23;12.20;;;2.20;99.90;;;;;;5065770;28;20216;-88
2022/03/06 08:14:54;;;;;;;27.52;12.13;;;2.70;99.90;;;;;;5064897;28;20225;-88
2022/03/06 08:17:22;;;;;;;18.40;11.15;;;2.70;99.90;;;;;;5067029;28;20227;-87
2022/03/06 08:19:49;;;;;;;22.52;12.82;;;2.90;99.90;;;;;;5064595;28;20204;-88
2022/03/06 08:22:16;;;;;;;19.25;10.48;;;2.90;99.90;;;;;;5068695;28;20233;-88
2022/03/06 08:24:44;;;;;;;22.80;12.23;;;2.80;99.90;;;;;;5065846;28;20202;-88
2022/03/06 08:27:11;;;;;;;18.83;11.82;;;3.00;99.90;;;;;;5064725;28;20263;-88
2022/03/06 08:29:38;;;;;;;18.25;12.18;;;2.90;99.90;;;;;;5066780;28;20206;-88
2022/03/06 08:32:06;;;;;;;21.25;12.65;;;3.00;99.90;;;;;;5069390;28;20208;-87
2022/03/06 08:34:33;;;;;;;24.10;13.90;;;3.10;99.90;;;;;;5071619;28;20247;-87
2022/03/06 08:37:01;;;;;;;18.80;12.07;;;3.00;99.90;;;;;;5071843;28;20308;-88
2022/03/06 08:39:28;;;;;;;14.48;7.28;;;3.20;99.90;;;;;;5070783;28;20210;-87
2022/03/06 08:41:56;;;;;;;19.92;11.25;;;3.30;99.90;;;;;;5069764;28;20270;-87
2022/03/06 08:44:23;;;;;;;24.75;13.35;;;3.50;99.90;;;;;;5080755;28;20214;-88
2022/03/06 08:46:50;;;;;;;20.48;13.00;;;3.30;99.90;;;;;;5081233;28;20209;-89
2022/03/06 08:49:17;;;;;;;10.65;6.57;;;3.50;99.90;;;;;;5080055;28;20200;-87
2022/03/06 08:51:45;;;;;;;22.40;11.98;;;3.70;99.90;;;;;;5077304;28;20211;-87
2022/03/06 08:54:12;;;;;;;20.60;13.45;;;3.90;99.80;;;;;;5076787;28;20191;-87
2022/03/06 08:56:39;;;;;;;20.50;11.35;;;3.60;99.50;;;;;;5079315;28;20248;-88
2022/03/06 08:59:07;;;;;;;13.95;7.38;;;3.80;99.00;;;;;;5081212;28;20197;-88
2022/03/06 09:01:34;;;;;;;12.40;5.63;;;4.00;98.40;;;;;;5075434;28;20201;-88
2022/03/06 09:04:01;;;;;;;18.70;10.90;;;4.00;97.80;;;;;;5070511;28;20213;-88
2022/03/06 09:06:29;;;;;;;19.75;11.65;;;3.80;97.50;;;;;;5070129;28;20256;-89
2022/03/06 09:08:56;;;;;;;17.73;9.75;;;4.20;97.70;;;;;;5067740;28;20200;-88
2022/03/06 09:11:23;;;;;;;18.48;11.77;;;4.10;97.40;;;;;;5064628;28;20664;-88
2022/03/06 09:13:50;;;;;;;18.23;10.43;;;4.40;97.30;;;;;;5068226;28;20209;-88
2022/03/06 09:16:18;;;;;;;17.80;10.25;;;4.40;97.20;;;;;;5067303;28;20261;-88
2022/03/06 09:18:47;;;;;;;16.45;11.23;;;4.40;96.60;;;;;;5067193;28;20205;-88
2022/03/06 09:21:14;;;;;;;19.20;11.65;;;4.40;96.80;;;;;;5064865;28;20271;-88
2022/03/06 09:23:41;;;;;;;18.17;10.10;;;4.40;97.20;;;;;;5073856;28;20211;-87
2022/03/06 09:26:08;;;;;;;25.10;12.95;;;3.90;96.60;;;;;;5099042;22;20241;-90
2022/03/06 09:28:36;;;;;;;16.63;9.77;;;4.50;96.60;;;;;;5076990;28;20208;-88
2022/03/06 09:31:04;;;;;;;12.60;7.82;;;4.70;96.10;;;;;;5079551;28;20197;-89
2022/03/06 09:33:39;;;;;;;22.08;7.30;;;4.70;95.50;;;;;;5079668;28;20246;-89
2022/03/06 09:36:11;;;;;;;20.95;9.07;;;4.40;95.30;;;;;;5068222;28;20215;-88
2022/03/06 09:38:38;;;;;;;18.58;10.73;;;4.60;95.30;;;;;;5074820;28;20209;-88
2022/03/06 09:41:16;;;;;;;19.08;11.77;;;4.70;95.50;;;;;;5076951;28;20206;-88
2022/03/06 09:43:44;;;;;;;18.10;9.68;;;4.80;95.50;;;;;;5066105;28;20232;-89
2022/03/06 09:46:13;;;;;;;17.85;11.52;;;4.90;94.50;;;;;;5062092;28;20213;-89
2022/03/06 09:48:47;;;;;;;15.20;8.85;;;5.10;94.70;;;;;;5066124;28;20202;-88
2022/03/06 09:51:18;;;;;;;9.88;5.70;;;5.00;94.00;;;;;;5061913;28;20228;-89
2022/03/06 09:53:48;;;;;;;17.67;10.95;;;4.80;94.20;;;;;;5062521;28;20217;-89
2022/03/06 09:56:18;;;;;;;21.52;13.15;;;4.90;94.40;;;;;;5060831;28;20307;-89
2022/03/06 09:58:54;;;;;;;22.02;12.48;;;4.70;94.00;;;;;;5067946;28;20216;-89
2022/03/06 10:01:21;;;;;;;24.90;15.35;;;4.80;94.30;;;;;;5071750;28;20293;-89
2022/03/06 10:03:50;;;;;;;25.08;13.98;;;5.00;94.00;;;;;;5065433;28;20214;-88
2022/03/06 10:06:17;;;;;;;24.02;14.95;;;5.10;92.70;;;;;;5067090;28;20639;-89
2022/03/06 10:08:44;;;;;;;20.55;12.20;;;4.90;92.20;;;;;;5061483;28;20231;-88
2022/03/06 10:11:15;;;;;;;17.83;10.40;;;5.20;90.40;;;;;;5061682;28;20716;-89
2022/03/06 10:13:44;;;;;;;18.75;11.90;;;5.20;90.40;;;;;;5063699;28;20256;-89
2022/03/06 10:16:14;;;;;;;17.58;10.80;;;5.50;90.70;;;;;;5061177;28;20249;-89
2022/03/06 10:18:45;;;;;;;21.13;12.07;;;5.60;90.50;;;;;;5062785;28;20202;-89
2022/03/06 10:21:25;;;;;;;15.50;10.57;;;5.80;89.90;;;;;;5069662;28;20206;-88
2022/03/06 10:24:08;;;;;;;10.60;6.53;;;5.90;87.80;;;;;;5062006;28;20217;-90
2022/03/06 10:26:40;;;;;;;17.92;8.70;;;5.90;85.50;;;;;;5062823;28;20620;-89
2022/03/06 10:29:11;;;;;;;15.60;8.85;;;5.80;85.40;;;;;;5069024;28;20254;-89
2022/03/06 10:31:38;;;;;;;20.60;10.70;;;5.80;83.80;;;;;;5064767;28;20201;-89
2022/03/06 10:34:14;;;;;;;18.52;8.90;;;5.70;82.90;;;;;;5064496;28;20224;-88
2022/03/06 10:36:44;;;;;;;16.90;10.50;;;5.80;82.70;;;;;;5066392;28;20249;-89
2022/03/06 10:39:17;;;;;;;18.38;10.70;;;5.50;82.10;;;;;;5069858;28;20274;-89
2022/03/06 10:41:55;;;;;;;17.63;9.55;;;5.20;82.40;;;;;;5066242;28;20208;-90
2022/03/06 10:44:49;;;;;;;16.48;8.80;;;5.60;82.60;;;;;;5062780;28;20614;-89
2022/03/06 10:47:21;;;;;;;16.95;10.82;;;5.60;79.60;;;;;;5060743;28;20233;-90
2022/03/06 10:50:05;;;;;;;16.70;10.07;;;5.50;78.50;;;;;;5063385;28;20206;-89
2022/03/06 10:52:53;;;;;;;;;;;;;;;;;;;;;
2022/03/06 10:55:34;;;;;;;17.27;10.05;;;5.70;79.30;;;;;;5072219;28;20233;-89
2022/03/06 10:58:04;;;;;;;17.92;10.43;;;5.70;80.20;;;;;;5068271;28;20257;-90
2022/03/06 11:00:33;;;;;;;16.77;10.85;;;6.10;80.70;;;;;;5063374;28;20646;-89
2022/03/06 11:03:06;;;;;;;18.52;10.73;;;6.10;80.40;;;;;;5061730;28;20206;-88
2022/03/06 11:05:41;;;;;;;12.38;6.47;;;6.20;80.00;;;;;;5061300;28;20210;-89
2022/03/06 11:08:13;;;;;;;14.13;9.45;;;6.20;80.00;;;;;;5058941;28;20234;-88
2022/03/06 11:10:42;;;;;;;14.95;10.57;;;6.30;80.20;;;;;;5059904;28;20205;-89
2022/03/06 11:13:12;;;;;;;16.08;9.90;;;6.40;78.50;;;;;;5059418;28;20305;-89
2022/03/06 11:15:40;;;;;;;8.90;6.38;;;6.00;77.50;;;;;;5066552;28;20242;-89
2022/03/06 11:18:07;;;;;;;13.05;6.72;;;6.40;76.00;;;;;;5062183;28;20224;-88
2022/03/06 11:20:36;;;;;;;12.23;6.53;;;6.00;74.90;;;;;;5061701;28;20210;-90
2022/03/06 11:23:17;;;;;;;14.13;9.18;;;6.00;75.50;;;;;;5068027;28;20296;-90
2022/03/06 11:26:15;;;;;;;15.52;8.32;;;6.00;76.80;;;;;;5060009;28;20265;-89
2022/03/06 11:29:00;;;;;;;17.05;9.75;;;6.10;76.30;;;;;;5058937;28;20309;-89
2022/03/06 11:31:43;;;;;;;11.18;5.63;;;6.00;76.20;;;;;;5059082;28;20220;-89
2022/03/06 11:34:12;;;;;;;15.38;9.70;;;5.90;74.50;;;;;;5060050;28;20212;-89
2022/03/06 11:36:50;;;;;;;14.70;7.28;;;6.00;75.00;;;;;;5059429;28;20237;-89
2022/03/06 11:39:50;;;;;;;14.95;9.13;;;5.90;75.00;;;;;;5060556;28;20264;-89
2022/03/06 11:42:55;;;;;;;14.02;8.30;;;6.00;75.50;;;;;;5060136;28;20730;-89
2022/03/06 11:45:59;;;;;;;14.32;7.65;;;6.00;75.10;;;;;;5060211;28;20281;-88
2022/03/06 11:49:15;;;;;;;14.30;9.50;;;5.90;73.80;;;;;;5061045;28;20233;-90
2022/03/06 11:51:47;;;;;;;14.45;8.70;;;6.20;73.50;;;;;;5059971;28;20214;-88
2022/03/06 11:54:23;;;;;;;15.90;9.35;;;6.10;73.60;;;;;;5061223;28;20244;-90
2022/03/06 11:57:02;;;;;;;15.38;10.15;;;6.10;73.80;;;;;;5073122;28;20236;-89
2022/03/06 11:59:38;;;;;;;12.45;7.57;;;6.20;72.80;;;;;;5077500;28;20236;-90
2022/03/06 12:02:18;;;;;;;12.80;9.25;;;6.50;71.50;;;;;;5066853;28;20218;-89
2022/03/06 12:04:47;;;;;;;16.75;8.90;;;6.60;72.20;;;;;;5059915;28;20200;-89
2022/03/06 12:07:16;;;;;;;14.50;9.02;;;6.60;72.10;;;;;;5059286;28;20248;-89
2022/03/06 12:09:46;;;;;;;13.10;9.55;;;6.80;70.20;;;;;;5065712;28;20229;-89
2022/03/06 12:12:17;;;;;;;11.70;7.50;;;6.80;68.70;;;;;;5063044;28;20287;-88
2022/03/06 12:14:47;;;;;;;15.52;9.20;;;6.50;68.10;;;;;;5075723;28;20198;-89
2022/03/06 12:17:30;;;;;;;13.90;8.88;;;6.80;68.70;;;;;;5070885;28;20257;-90
2022/03/06 12:20:28;;;;;;;11.93;8.10;;;7.00;67.70;;;;;;5069958;28;20294;-89
2022/03/06 12:23:04;;;;;;;12.57;8.35;;;7.20;68.00;;;;;;5067059;28;20210;-89
2022/03/06 12:25:35;;;;;;;12.25;9.18;;;7.40;67.90;;;;;;5066075;28;20292;-89
2022/03/06 12:28:46;;;;;;;13.70;7.20;;;7.40;67.70;;;;;;5076445;28;20234;-88
2022/03/06 12:31:37;;;;;;;11.95;7.93;;;7.30;67.40;;;;;;5063228;28;20212;-89
2022/03/06 12:34:40;;;;;;;12.85;7.65;;;7.00;67.60;;;;;;5059483;28;20264;-90
2022/03/06 12:37:07;;;;;;;12.07;6.70;;;6.90;68.70;;;;;;5059104;28;20234;-90
2022/03/06 12:39:41;;;;;;;11.80;7.78;;;6.80;68.50;;;;;;5058708;28;20232;-89
2022/03/06 12:42:11;;;;;;;14.55;9.68;;;6.80;67.70;;;;;;5058623;28;20206;-89
2022/03/06 12:44:54;;;;;;;13.10;9.40;;;6.50;68.50;;;;;;5061997;28;20273;-89
2022/03/06 12:47:21;;;;;;;14.20;7.80;;;6.90;68.10;;;;;;5273790;22;20225;-89
2022/03/06 12:49:50;;;;;;;12.95;7.72;;;7.00;67.60;;;;;;5072155;28;20270;-89
2022/03/06 12:52:23;;;;;;;16.27;9.95;;;6.90;67.30;;;;;;5073180;28;20229;-89
2022/03/06 12:54:53;;;;;;;13.80;9.05;;;6.90;67.60;;;;;;5076705;28;20202;-89
2022/03/06 13:00:19;;;;;;;11.77;8.13;;;6.80;67.90;;;;;;5078305;28;20245;-89